createdAt,value
2023-04-30T00:01:28.754Z,51.60
2023-04-30T00:03:56.293Z,51.91
2023-04-30T00:06:23.350Z,52.26
2023-04-30T00:08:50.381Z,52.35
2023-04-30T00:11:17.352Z,52.38
2023-04-30T00:13:44.447Z,52.50
2023-04-30T00:16:11.433Z,52.56
2023-04-30T00:18:39.015Z,52.84
2023-04-30T00:21:06.043Z,52.77
2023-04-30T00:23:33.042Z,52.89
2023-04-30T00:26:00.088Z,53.13
2023-04-30T00:28:27.172Z,52.69
2023-04-30T00:30:54.154Z,52.53
2023-04-30T00:33:21.319Z,52.55
2023-04-30T00:35:48.508Z,52.50
2023-04-30T00:38:15.548Z,52.78
2023-04-30T00:40:43.310Z,52.79
2023-04-30T00:43:10.288Z,52.98
2023-04-30T00:45:37.275Z,52.81
2023-04-30T00:48:04.429Z,52.88
2023-04-30T00:50:31.436Z,52.69
2023-04-30T00:52:59.694Z,52.31
2023-04-30T00:55:27.055Z,52.25
2023-04-30T00:57:54.451Z,52.05
2023-04-30T01:00:22.118Z,52.15
2023-04-30T01:02:49.950Z,52.18
2023-04-30T01:05:17.120Z,52.25
2023-04-30T01:07:46.497Z,52.40
2023-04-30T01:10:14.286Z,52.76
2023-04-30T01:12:44.324Z,52.50
2023-04-30T01:15:36.427Z,52.64
2023-04-30T01:18:09.274Z,52.79
2023-04-30T01:20:37.049Z,52.81
2023-04-30T01:23:27.221Z,52.85
2023-04-30T01:26:07.017Z,53.10
2023-04-30T01:28:35.901Z,53.22
2023-04-30T01:31:02.983Z,53.28
2023-04-30T01:33:29.910Z,53.32
2023-04-30T01:36:21.937Z,53.50
2023-04-30T01:39:04.187Z,53.35
2023-04-30T01:42:01.794Z,53.51
2023-04-30T01:44:37.955Z,53.71
2023-04-30T01:47:06.612Z,53.86
2023-04-30T01:50:12.363Z,53.82
2023-04-30T01:52:46.458Z,53.98
2023-04-30T01:55:27.784Z,54.09
2023-04-30T01:57:59.810Z,54.13
2023-04-30T02:00:27.807Z,54.30
2023-04-30T02:02:55.940Z,54.29
2023-04-30T02:05:23.147Z,54.39
2023-04-30T02:07:51.108Z,54.36
2023-04-30T02:10:20.657Z,54.32
2023-04-30T02:12:48.868Z,54.36
2023-04-30T02:15:16.197Z,54.46
2023-04-30T02:17:43.239Z,54.47
2023-04-30T02:20:10.843Z,54.56
2023-04-30T02:22:38.950Z,54.78
2023-04-30T02:25:06.313Z,54.92
2023-04-30T02:27:33.405Z,55.03
2023-04-30T02:30:00.596Z,55.32
2023-04-30T02:32:27.715Z,55.53
2023-04-30T02:34:54.767Z,55.69
2023-04-30T02:37:21.912Z,56.01
2023-04-30T02:39:49.109Z,56.14
2023-04-30T02:42:16.660Z,56.13
2023-04-30T02:44:43.819Z,56.30
2023-04-30T02:47:11.150Z,56.38
2023-04-30T02:49:38.271Z,56.36
2023-04-30T02:52:05.403Z,56.54
2023-04-30T02:54:32.421Z,56.81
2023-04-30T02:56:59.462Z,56.88
2023-04-30T02:59:27.377Z,57.01
2023-04-30T03:01:54.463Z,57.12
2023-04-30T03:04:21.462Z,57.10
2023-04-30T03:06:48.461Z,57.35
2023-04-30T03:09:15.573Z,57.22
2023-04-30T03:11:42.540Z,57.17
2023-04-30T03:14:09.489Z,57.33
2023-04-30T03:16:36.870Z,57.33
2023-04-30T03:19:03.968Z,57.30
2023-04-30T03:21:31.161Z,57.34
2023-04-30T03:23:58.139Z,57.32
2023-04-30T03:26:25.204Z,57.55
2023-04-30T03:28:55.229Z,57.38
2023-04-30T03:31:22.230Z,57.38
2023-04-30T03:33:49.462Z,57.40
2023-04-30T03:36:16.611Z,57.33
2023-04-30T03:38:43.593Z,57.51
2023-04-30T03:41:11.099Z,57.53
2023-04-30T03:43:38.249Z,57.49
2023-04-30T03:46:05.547Z,57.52
2023-04-30T03:48:32.599Z,57.49
2023-04-30T03:50:59.562Z,57.59
2023-04-30T03:53:26.909Z,57.45
2023-04-30T03:55:54.062Z,57.61
2023-04-30T03:58:21.564Z,57.67
2023-04-30T04:00:48.707Z,57.76
2023-04-30T04:03:16.246Z,57.72
2023-04-30T04:05:43.305Z,57.59
2023-04-30T04:08:10.481Z,57.50
2023-04-30T04:10:39.266Z,57.41
2023-04-30T04:13:09.424Z,57.38
2023-04-30T04:15:36.607Z,57.49
2023-04-30T04:18:03.951Z,57.54
2023-04-30T04:20:32.501Z,57.44
2023-04-30T04:22:59.613Z,57.45
2023-04-30T04:25:27.684Z,57.55
2023-04-30T04:27:54.754Z,57.52
2023-04-30T04:30:21.886Z,57.35
2023-04-30T04:32:54.145Z,57.34
2023-04-30T04:35:21.471Z,57.40
2023-04-30T04:37:48.590Z,57.46
2023-04-30T04:40:15.692Z,57.47
2023-04-30T04:42:42.776Z,57.39
2023-04-30T04:45:10.117Z,57.22
2023-04-30T04:47:37.970Z,57.25
2023-04-30T04:50:05.332Z,57.04
2023-04-30T04:52:32.323Z,57.14
2023-04-30T04:54:59.239Z,56.87
2023-04-30T04:57:26.489Z,56.80
2023-04-30T04:59:53.920Z,56.92
2023-04-30T05:02:23.570Z,56.80
2023-04-30T05:04:51.318Z,56.70
2023-04-30T05:07:19.087Z,56.58
2023-04-30T05:09:49.373Z,56.31
2023-04-30T05:12:16.384Z,56.16
2023-04-30T05:14:44.079Z,55.87
2023-04-30T05:17:11.228Z,55.74
2023-04-30T05:19:38.197Z,55.67
2023-04-30T05:22:05.478Z,55.54
2023-04-30T05:24:32.544Z,55.23
2023-04-30T05:26:59.617Z,55.14
2023-04-30T05:29:26.800Z,54.53
2023-04-30T05:31:54.802Z,53.93
2023-04-30T05:34:21.911Z,53.77
2023-04-30T05:36:50.190Z,53.82
2023-04-30T05:39:17.209Z,53.30
2023-04-30T05:41:44.350Z,52.42
2023-04-30T05:44:11.325Z,51.75
2023-04-30T05:46:38.285Z,51.09
2023-04-30T05:49:05.856Z,50.85
2023-04-30T05:51:32.951Z,50.37
2023-04-30T05:54:00.520Z,50.00
2023-04-30T05:56:27.687Z,49.48
2023-04-30T05:58:54.708Z,48.84
2023-04-30T06:01:23.378Z,47.94
2023-04-30T06:03:50.563Z,47.62
2023-04-30T06:06:17.587Z,47.27
2023-04-30T06:08:45.618Z,46.76
2023-04-30T06:11:13.250Z,46.45
2023-04-30T06:13:40.582Z,46.22
2023-04-30T06:16:08.520Z,45.69
2023-04-30T06:18:35.855Z,44.96
2023-04-30T06:21:02.805Z,44.46
2023-04-30T06:23:29.988Z,44.26
2023-04-30T06:25:57.095Z,43.65
2023-04-30T06:28:24.045Z,43.16
2023-04-30T06:30:52.032Z,43.03
2023-04-30T06:33:19.167Z,42.59
2023-04-30T06:35:46.615Z,42.35
2023-04-30T06:38:14.287Z,42.26
2023-04-30T06:40:41.291Z,41.44
2023-04-30T06:43:08.350Z,41.25
2023-04-30T06:45:35.748Z,41.16
2023-04-30T06:48:02.879Z,41.01
2023-04-30T06:50:29.993Z,40.51
2023-04-30T06:52:56.997Z,40.53
2023-04-30T06:55:24.498Z,40.52
2023-04-30T06:57:51.457Z,40.38
2023-04-30T07:00:18.748Z,40.10
2023-04-30T07:02:47.997Z,39.92
2023-04-30T07:05:16.672Z,39.92
2023-04-30T07:07:43.849Z,39.50
2023-04-30T07:10:11.003Z,39.38
2023-04-30T07:12:38.006Z,39.16
2023-04-30T07:15:05.367Z,39.61
2023-04-30T07:17:32.494Z,39.29
2023-04-30T07:19:59.665Z,38.92
2023-04-30T07:22:27.956Z,38.60
2023-04-30T07:24:55.506Z,38.78
2023-04-30T07:27:22.423Z,38.56
2023-04-30T07:29:49.384Z,37.92
2023-04-30T07:32:16.554Z,37.70
2023-04-30T07:34:43.571Z,37.53
2023-04-30T07:37:10.643Z,37.53
2023-04-30T07:39:37.694Z,37.47
2023-04-30T07:42:04.885Z,37.63
2023-04-30T07:44:31.877Z,37.48
2023-04-30T07:46:58.857Z,37.22
2023-04-30T07:49:26.069Z,37.08
2023-04-30T07:51:53.082Z,37.12
2023-04-30T07:54:20.144Z,37.52
2023-04-30T07:56:49.013Z,37.94
2023-04-30T07:59:16.181Z,37.91
2023-04-30T08:01:43.206Z,37.71
2023-04-30T08:04:10.748Z,37.85
2023-04-30T08:06:39.550Z,38.17
2023-04-30T08:09:06.568Z,38.11
2023-04-30T08:11:33.708Z,37.97
2023-04-30T08:14:00.849Z,38.05
2023-04-30T08:16:27.830Z,38.25
2023-04-30T08:18:54.880Z,38.18
2023-04-30T08:21:21.868Z,38.18
2023-04-30T08:23:50.171Z,37.83
2023-04-30T08:26:18.159Z,37.85
2023-04-30T08:28:45.152Z,37.58
2023-04-30T08:31:12.865Z,37.72
2023-04-30T08:33:41.268Z,37.84
2023-04-30T08:36:08.249Z,37.28
2023-04-30T08:38:35.206Z,36.99
2023-04-30T08:41:13.836Z,36.80
2023-04-30T08:43:41.684Z,36.55
2023-04-30T08:46:08.813Z,36.03
2023-04-30T08:48:35.871Z,35.69
2023-04-30T08:51:03.573Z,35.79
2023-04-30T08:53:31.582Z,36.38
2023-04-30T08:55:58.654Z,36.25
2023-04-30T08:58:25.840Z,35.80
2023-04-30T09:00:53.013Z,35.62
2023-04-30T09:03:22.352Z,35.10
2023-04-30T09:05:49.443Z,34.89
2023-04-30T09:08:20.420Z,34.73
2023-04-30T09:10:47.423Z,35.03
2023-04-30T09:13:14.474Z,34.95
2023-04-30T09:15:42.277Z,34.54
2023-04-30T09:18:14.594Z,33.63
2023-04-30T09:20:58.480Z,32.84
2023-04-30T09:23:25.818Z,32.80
2023-04-30T09:25:52.908Z,32.93
2023-04-30T09:28:23.859Z,33.29
2023-04-30T09:30:51.166Z,33.16
2023-04-30T09:33:18.366Z,32.97
2023-04-30T09:35:46.689Z,32.61
2023-04-30T09:38:32.703Z,32.21
2023-04-30T09:41:01.646Z,32.45
2023-04-30T09:43:29.759Z,32.76
2023-04-30T09:45:58.642Z,33.00
2023-04-30T09:48:29.504Z,32.85
2023-04-30T09:50:56.953Z,32.45
2023-04-30T09:53:24.406Z,32.05
2023-04-30T09:55:51.722Z,32.14
2023-04-30T09:58:19.170Z,31.94
2023-04-30T10:00:48.457Z,31.87
2023-04-30T10:03:16.259Z,31.42
2023-04-30T10:05:48.682Z,30.94
2023-04-30T10:08:28.859Z,31.32
2023-04-30T10:11:01.375Z,31.59
2023-04-30T10:13:31.492Z,31.87
2023-04-30T10:16:04.811Z,32.14
2023-04-30T10:18:37.499Z,32.43
2023-04-30T10:21:10.451Z,32.43
2023-04-30T10:23:43.930Z,32.11
2023-04-30T10:26:12.596Z,32.39
2023-04-30T10:28:40.841Z,32.44
2023-04-30T10:31:10.877Z,32.45
2023-04-30T10:33:54.519Z,32.38
2023-04-30T10:36:31.944Z,31.60
2023-04-30T10:38:58.909Z,31.66
2023-04-30T10:41:27.469Z,31.61
2023-04-30T10:44:02.104Z,31.62
2023-04-30T10:46:29.432Z,31.34
2023-04-30T10:48:57.276Z,31.47
2023-04-30T10:51:24.263Z,31.52
2023-04-30T10:53:53.028Z,31.58
2023-04-30T10:56:39.441Z,31.43
2023-04-30T10:59:08.355Z,31.53
2023-04-30T11:01:55.279Z,31.46
2023-04-30T11:04:22.474Z,31.56
2023-04-30T11:06:52.702Z,31.64
2023-04-30T11:09:20.487Z,31.22
2023-04-30T11:11:50.525Z,30.76
2023-04-30T11:14:20.854Z,30.33
2023-04-30T11:16:53.098Z,29.90
2023-04-30T11:19:20.021Z,30.09
2023-04-30T11:22:05.575Z,30.20
2023-04-30T11:24:54.626Z,30.40
2023-04-30T11:27:23.084Z,30.49
2023-04-30T11:29:51.565Z,30.64
2023-04-30T11:32:47.997Z,30.45
2023-04-30T11:35:18.423Z,30.50
2023-04-30T11:37:45.765Z,30.66
2023-04-30T11:40:13.633Z,30.57
2023-04-30T11:42:46.196Z,30.49
2023-04-30T11:45:14.053Z,30.53
2023-04-30T11:47:47.989Z,30.26
2023-04-30T11:50:19.608Z,30.12
2023-04-30T11:52:50.700Z,29.63
2023-04-30T11:55:19.972Z,29.19
2023-04-30T11:57:49.387Z,29.31
2023-04-30T12:00:21.346Z,29.54
2023-04-30T12:02:49.960Z,29.42
2023-04-30T12:05:28.081Z,29.62
2023-04-30T12:08:06.495Z,29.81
2023-04-30T12:10:33.603Z,30.18
2023-04-30T12:13:00.681Z,30.10
2023-04-30T12:15:29.071Z,29.77
2023-04-30T12:17:57.110Z,29.77
2023-04-30T12:20:28.300Z,30.01
2023-04-30T12:22:55.470Z,30.19
2023-04-30T12:25:22.890Z,30.31
2023-04-30T12:27:52.041Z,30.30
2023-04-30T12:30:27.010Z,30.39
2023-04-30T12:32:56.646Z,30.31
2023-04-30T12:35:24.530Z,29.96
2023-04-30T12:37:53.902Z,29.89
2023-04-30T12:40:21.833Z,30.04
2023-04-30T12:42:49.171Z,30.11
2023-04-30T12:45:52.208Z,30.22
2023-04-30T12:48:21.639Z,29.92
2023-04-30T12:50:49.424Z,30.05
2023-04-30T12:53:16.485Z,30.09
2023-04-30T12:55:43.473Z,30.00
2023-04-30T12:58:11.685Z,30.10
2023-04-30T13:00:51.573Z,30.37
2023-04-30T13:03:20.193Z,30.30
2023-04-30T13:05:49.632Z,30.89
2023-04-30T13:08:17.028Z,31.27
2023-04-30T13:10:47.162Z,30.84
2023-04-30T13:13:15.619Z,30.52
2023-04-30T13:15:43.279Z,29.74
2023-04-30T13:18:10.721Z,29.69
2023-04-30T13:20:38.301Z,29.91
2023-04-30T13:23:08.305Z,29.98
2023-04-30T13:25:35.525Z,29.84
2023-04-30T13:28:02.790Z,29.88
2023-04-30T13:30:30.780Z,29.69
2023-04-30T13:32:58.950Z,29.56
2023-04-30T13:35:26.029Z,29.54
2023-04-30T13:37:54.466Z,28.95
2023-04-30T13:40:21.543Z,28.36
2023-04-30T13:42:49.221Z,28.03
2023-04-30T13:45:16.490Z,27.69
2023-04-30T13:47:43.636Z,27.71
2023-04-30T13:50:11.101Z,27.51
2023-04-30T13:52:40.085Z,27.32
2023-04-30T13:55:08.356Z,27.35
2023-04-30T13:57:35.343Z,27.25
2023-04-30T14:00:02.605Z,27.11
2023-04-30T14:02:35.152Z,26.58
2023-04-30T14:05:06.708Z,26.27
2023-04-30T14:07:34.796Z,26.26
2023-04-30T14:10:02.533Z,26.10
2023-04-30T14:12:30.787Z,25.69
2023-04-30T14:14:58.528Z,25.64
2023-04-30T14:17:27.128Z,25.56
2023-04-30T14:19:55.051Z,26.19
2023-04-30T14:22:23.033Z,26.61
2023-04-30T14:24:52.462Z,27.09
2023-04-30T14:27:19.474Z,27.12
2023-04-30T14:29:46.570Z,27.37
2023-04-30T14:32:14.289Z,27.63
2023-04-30T14:34:41.777Z,27.83
2023-04-30T14:37:08.975Z,28.46
2023-04-30T14:39:35.918Z,28.72
2023-04-30T14:42:03.663Z,28.97
2023-04-30T14:44:31.455Z,29.31
2023-04-30T14:46:58.433Z,29.90
2023-04-30T14:49:26.344Z,30.10
2023-04-30T14:51:54.712Z,30.48
2023-04-30T14:54:22.156Z,30.88
2023-04-30T14:56:49.303Z,31.30
2023-04-30T14:59:16.344Z,31.58
2023-04-30T15:01:43.381Z,32.08
2023-04-30T15:04:10.626Z,32.05
2023-04-30T15:06:40.573Z,32.02
2023-04-30T15:09:07.656Z,32.07
2023-04-30T15:11:34.687Z,32.16
2023-04-30T15:14:01.866Z,32.32
2023-04-30T15:16:29.829Z,32.39
2023-04-30T15:18:57.045Z,32.46
2023-04-30T15:21:24.147Z,32.47
2023-04-30T15:23:51.142Z,32.51
2023-04-30T15:26:20.706Z,32.33
2023-04-30T15:28:48.059Z,32.21
2023-04-30T15:31:17.457Z,32.50
2023-04-30T15:33:44.482Z,32.78
2023-04-30T15:36:11.821Z,33.00
2023-04-30T15:38:39.480Z,33.30
2023-04-30T15:41:07.344Z,33.45
2023-04-30T15:43:34.910Z,33.77
2023-04-30T15:46:02.003Z,33.92
2023-04-30T15:48:29.039Z,34.13
2023-04-30T15:50:57.030Z,34.19
2023-04-30T15:53:24.180Z,34.61
2023-04-30T15:55:51.205Z,34.84
2023-04-30T15:58:18.278Z,35.04
2023-04-30T16:00:45.457Z,35.06
2023-04-30T16:03:12.483Z,35.13
2023-04-30T16:05:40.612Z,35.38
2023-04-30T16:08:08.042Z,35.45
2023-04-30T16:10:35.012Z,35.26
2023-04-30T16:13:01.999Z,35.22
2023-04-30T16:15:30.428Z,35.17
2023-04-30T16:17:57.539Z,35.40
2023-04-30T16:20:24.661Z,35.78
2023-04-30T16:22:52.831Z,36.05
2023-04-30T16:25:20.893Z,35.91
2023-04-30T16:27:48.102Z,36.16
2023-04-30T16:30:15.149Z,36.45
2023-04-30T16:32:42.187Z,36.59
2023-04-30T16:35:09.609Z,36.54
2023-04-30T16:37:36.656Z,36.37
2023-04-30T16:40:03.882Z,36.32
2023-04-30T16:42:31.506Z,36.60
2023-04-30T16:44:59.439Z,36.58
2023-04-30T16:47:27.608Z,36.73
2023-04-30T16:49:58.909Z,37.01
2023-04-30T16:52:25.961Z,37.00
2023-04-30T16:54:53.010Z,37.07
2023-04-30T16:57:20.279Z,37.17
2023-04-30T16:59:47.478Z,37.33
2023-04-30T17:02:14.464Z,37.51
2023-04-30T17:04:41.531Z,37.91
2023-04-30T17:07:08.740Z,38.20
2023-04-30T17:09:37.548Z,38.58
2023-04-30T17:12:05.625Z,38.61
2023-04-30T17:14:32.710Z,38.93
2023-04-30T17:16:59.716Z,39.42
2023-04-30T17:19:26.800Z,39.65
2023-04-30T17:21:53.967Z,39.73
2023-04-30T17:24:21.195Z,39.89
2023-04-30T17:26:49.315Z,40.23
2023-04-30T17:29:16.788Z,40.87
2023-04-30T17:31:44.232Z,41.44
2023-04-30T17:34:12.514Z,42.09
2023-04-30T17:36:39.508Z,42.45
2023-04-30T17:39:06.597Z,42.57
2023-04-30T17:41:33.673Z,42.81
2023-04-30T17:44:00.973Z,43.81
2023-04-30T17:46:29.048Z,44.04
2023-04-30T17:48:56.068Z,43.67
2023-04-30T17:51:23.057Z,43.41
2023-04-30T17:53:50.367Z,43.55
2023-04-30T17:56:17.796Z,44.05
2023-04-30T17:58:46.000Z,44.37
2023-04-30T18:01:13.468Z,45.16
2023-04-30T18:03:40.651Z,45.35
2023-04-30T18:06:07.751Z,45.00
2023-04-30T18:08:35.280Z,45.17
2023-04-30T18:11:05.130Z,45.93
2023-04-30T18:13:32.879Z,46.36
2023-04-30T18:16:00.062Z,46.70
2023-04-30T18:18:29.064Z,46.99
2023-04-30T18:20:56.228Z,47.72
2023-04-30T18:23:23.449Z,48.86
2023-04-30T18:25:50.484Z,49.43
2023-04-30T18:28:17.560Z,50.24
2023-04-30T18:30:45.244Z,50.91
2023-04-30T18:33:12.746Z,50.97
2023-04-30T18:35:39.728Z,51.18
2023-04-30T18:38:08.365Z,51.96
2023-04-30T18:40:35.419Z,51.88
2023-04-30T18:43:02.420Z,51.83
2023-04-30T18:45:29.601Z,52.15
2023-04-30T18:47:56.932Z,52.29
2023-04-30T18:50:25.467Z,53.06
2023-04-30T18:52:52.512Z,53.54
2023-04-30T18:55:19.559Z,53.92
2023-04-30T18:57:46.550Z,54.17
2023-04-30T19:00:17.068Z,54.04
2023-04-30T19:02:44.353Z,54.10
2023-04-30T19:05:11.564Z,54.52
2023-04-30T19:07:39.984Z,54.64
2023-04-30T19:10:07.349Z,54.51
2023-04-30T19:12:34.413Z,54.93
2023-04-30T19:15:01.476Z,55.13
2023-04-30T19:17:30.665Z,55.82
2023-04-30T19:19:59.628Z,56.15
2023-04-30T19:22:26.590Z,56.54
2023-04-30T19:24:56.079Z,57.17
2023-04-30T19:27:23.188Z,57.82
2023-04-30T19:29:50.139Z,58.06
2023-04-30T19:32:17.405Z,58.52
2023-04-30T19:34:44.583Z,58.95
2023-04-30T19:37:11.789Z,59.37
2023-04-30T19:39:40.179Z,59.51
2023-04-30T19:42:10.234Z,59.78
2023-04-30T19:44:37.297Z,60.30
2023-04-30T19:47:05.153Z,60.82
2023-04-30T19:49:34.196Z,61.07
2023-04-30T19:52:01.826Z,61.67
2023-04-30T19:54:28.775Z,61.85
2023-04-30T19:56:55.887Z,62.29
2023-04-30T19:59:23.000Z,62.71
2023-04-30T20:01:50.455Z,63.04
2023-04-30T20:04:17.463Z,63.23
2023-04-30T20:06:45.088Z,63.40
2023-04-30T20:09:12.571Z,63.82
2023-04-30T20:11:39.569Z,63.87
2023-04-30T20:14:06.605Z,64.17
2023-04-30T20:16:34.128Z,64.05
2023-04-30T20:19:01.262Z,64.12
2023-04-30T20:21:29.221Z,64.01
2023-04-30T20:23:56.412Z,63.85
2023-04-30T20:26:25.916Z,63.79
2023-04-30T20:28:53.568Z,64.02
2023-04-30T20:31:21.520Z,63.88
2023-04-30T20:33:48.691Z,63.90
2023-04-30T20:36:16.885Z,63.79
2023-04-30T20:38:43.948Z,63.98
2023-04-30T20:41:10.960Z,64.23
2023-04-30T20:43:38.376Z,64.51
2023-04-30T20:46:06.467Z,64.73
2023-04-30T20:48:33.496Z,64.75
2023-04-30T20:51:00.627Z,64.79
2023-04-30T20:53:27.595Z,65.12
2023-04-30T20:55:59.930Z,65.07
2023-04-30T20:58:30.566Z,65.43
2023-04-30T21:00:57.612Z,65.59
2023-04-30T21:03:24.961Z,65.71
2023-04-30T21:05:52.024Z,65.87
2023-04-30T21:08:18.974Z,66.08
2023-04-30T21:10:46.056Z,66.32
2023-04-30T21:13:15.074Z,66.38
2023-04-30T21:15:43.197Z,66.79
2023-04-30T21:18:10.280Z,66.81
2023-04-30T21:20:37.878Z,66.81
2023-04-30T21:23:04.881Z,67.02
2023-04-30T21:25:31.850Z,67.21
2023-04-30T21:27:58.914Z,67.43
2023-04-30T21:30:26.527Z,67.25
2023-04-30T21:32:58.704Z,67.20
2023-04-30T21:35:27.764Z,67.50
2023-04-30T21:37:55.550Z,67.20
2023-04-30T21:40:22.550Z,67.50
2023-04-30T21:42:49.970Z,68.03
2023-04-30T21:45:17.024Z,68.15
2023-04-30T21:47:44.875Z,68.60
2023-04-30T21:50:12.391Z,68.83
2023-04-30T21:52:39.478Z,68.52
2023-04-30T21:55:07.877Z,68.68
2023-04-30T21:57:34.831Z,68.62
2023-04-30T22:00:01.942Z,68.42
2023-04-30T22:02:29.845Z,68.57
2023-04-30T22:04:57.260Z,68.54
2023-04-30T22:07:24.635Z,68.63
2023-04-30T22:09:54.637Z,68.33
2023-04-30T22:12:25.090Z,68.32
2023-04-30T22:14:55.302Z,68.52
2023-04-30T22:17:22.825Z,68.83
2023-04-30T22:19:49.895Z,68.85
2023-04-30T22:22:16.865Z,68.89
2023-04-30T22:24:43.813Z,68.90
2023-04-30T22:27:10.721Z,68.75
2023-04-30T22:29:37.718Z,69.21
2023-04-30T22:32:06.434Z,69.25
2023-04-30T22:34:38.882Z,69.57
2023-04-30T22:37:06.202Z,69.54
2023-04-30T22:39:33.182Z,69.66
2023-04-30T22:42:00.138Z,69.66
2023-04-30T22:44:27.053Z,69.76
2023-04-30T22:46:56.756Z,69.65
2023-04-30T22:49:31.759Z,69.68
2023-04-30T22:51:59.796Z,69.73
2023-04-30T22:54:26.831Z,69.95
2023-04-30T22:56:53.825Z,69.81
2023-04-30T22:59:20.753Z,69.72
2023-04-30T23:01:47.739Z,69.74
2023-04-30T23:04:14.730Z,69.66
2023-04-30T23:06:43.118Z,69.55
2023-04-30T23:09:10.330Z,69.22
2023-04-30T23:11:37.322Z,69.24
2023-04-30T23:14:04.875Z,69.03
2023-04-30T23:16:31.896Z,68.89
2023-04-30T23:18:59.116Z,68.80
2023-04-30T23:21:26.899Z,68.95
2023-04-30T23:23:53.937Z,69.32
2023-04-30T23:26:21.385Z,69.53
2023-04-30T23:28:48.562Z,69.69
2023-04-30T23:31:15.636Z,70.38
2023-04-30T23:33:42.588Z,70.83
2023-04-30T23:36:09.624Z,71.20
2023-04-30T23:38:36.590Z,71.57
2023-04-30T23:41:03.577Z,71.50
2023-04-30T23:43:31.640Z,71.62
2023-04-30T23:45:59.504Z,71.70
2023-04-30T23:48:26.510Z,71.54
2023-04-30T23:51:04.418Z,71.42
2023-04-30T23:53:31.499Z,71.14
2023-04-30T23:55:58.497Z,71.01
2023-04-30T23:58:25.889Z,71.02
